Pays
Station

 

Conditions  météo  pour  Orsta-Volda/Hovden  -  Norvège    Norvège

  
-5 °C
    
 
 

METAR pour Orsta-Volda/Hovden :

ENOV 212150Z VRB02KT CAVOK M05/M07 Q1007 RMK WIND 2175FT 13023KT

 

Voici le bulletin pour Orsta-Volda/Hovden - Norvège.
 
Le bulletin a été fait il y a 38 minutes, à 21:50 UTC .
Le vent soufflait à la vitesse de 1.0 mètres par seconde de direction variable.
 
La température était de -5 °C, avec un point de rosée à -7 °C.
La pression atmosphérique était de 1007 hPa.
L'humidité relative était de 85.8%.
 
Il y avait pas de nuages en-dessous de 1500 mètres et pas de cumulonimbus.
 
La visibilité globale était de supérieure à 10 kilomètres.
 

 
 
 

Pays :   A   B   C   D   E   F   G   H   I   J   K   L   M   N   O   P   Q   R   S   T   U   V   W   Y   Z

 

Partenaires :  Info Météo avec Met'info
Météo Marine avec MeteoMarine.net
Infos Site  |  Infos Légales  |  Crédits  |  Confidentialité
Contactez-nous  |  Ajouter aux favoris
© 2013-2019 METAR - Tous droits réservés